sensor_id;sensor_type;location;lat;lon;timestamp;P1;durP1;ratioP1;P2;durP2;ratioP2
13366;SDS011;6752;52.612;13.630;2024-02-16T00:00:44;9.40;;;8.40;;
13366;SDS011;6752;52.612;13.630;2024-02-16T00:05:46;11.33;;;8.53;;
13366;SDS011;6752;52.612;13.630;2024-02-16T00:10:48;11.63;;;9.03;;
13366;SDS011;6752;52.612;13.630;2024-02-16T00:15:51;12.40;;;10.40;;
13366;SDS011;6752;52.612;13.630;2024-02-16T00:20:53;10.67;;;9.57;;
13366;SDS011;6752;52.612;13.630;2024-02-16T00:25:56;13.43;;;11.10;;
13366;SDS011;6752;52.612;13.630;2024-02-16T00:30:58;12.07;;;9.77;;
13366;SDS011;6752;52.612;13.630;2024-02-16T00:36:00;14.20;;;12.60;;
13366;SDS011;6752;52.612;13.630;2024-02-16T00:41:03;15.03;;;13.63;;
13366;SDS011;6752;52.612;13.630;2024-02-16T00:46:05;14.73;;;13.38;;
13366;SDS011;6752;52.612;13.630;2024-02-16T00:51:07;14.60;;;13.30;;
13366;SDS011;6752;52.612;13.630;2024-02-16T00:56:10;18.10;;;15.70;;
13366;SDS011;6752;52.612;13.630;2024-02-16T01:01:12;16.63;;;14.80;;
13366;SDS011;6752;52.612;13.630;2024-02-16T01:06:15;17.20;;;14.97;;
13366;SDS011;6752;52.612;13.630;2024-02-16T01:11:17;16.97;;;15.27;;
13366;SDS011;6752;52.612;13.630;2024-02-16T01:16:19;16.33;;;14.63;;
13366;SDS011;6752;52.612;13.630;2024-02-16T01:21:22;16.00;;;14.50;;
13366;SDS011;6752;52.612;13.630;2024-02-16T01:26:24;16.17;;;14.50;;
13366;SDS011;6752;52.612;13.630;2024-02-16T01:31:26;15.97;;;14.27;;
13366;SDS011;6752;52.612;13.630;2024-02-16T01:36:29;16.63;;;14.93;;
13366;SDS011;6752;52.612;13.630;2024-02-16T01:41:31;15.33;;;13.80;;
13366;SDS011;6752;52.612;13.630;2024-02-16T01:46:34;18.20;;;16.40;;
13366;SDS011;6752;52.612;13.630;2024-02-16T01:51:36;18.43;;;16.50;;
13366;SDS011;6752;52.612;13.630;2024-02-16T01:56:38;18.23;;;16.47;;
13366;SDS011;6752;52.612;13.630;2024-02-16T02:01:41;17.23;;;15.47;;
13366;SDS011;6752;52.612;13.630;2024-02-16T02:06:43;19.47;;;16.27;;
13366;SDS011;6752;52.612;13.630;2024-02-16T02:11:45;16.63;;;14.97;;
13366;SDS011;6752;52.612;13.630;2024-02-16T02:16:48;18.53;;;16.60;;
13366;SDS011;6752;52.612;13.630;2024-02-16T02:21:50;18.90;;;17.07;;
13366;SDS011;6752;52.612;13.630;2024-02-16T02:26:53;19.73;;;17.67;;
13366;SDS011;6752;52.612;13.630;2024-02-16T02:31:55;19.00;;;17.03;;
13366;SDS011;6752;52.612;13.630;2024-02-16T02:36:57;20.43;;;18.33;;
13366;SDS011;6752;52.612;13.630;2024-02-16T02:42:00;22.37;;;20.13;;
13366;SDS011;6752;52.612;13.630;2024-02-16T02:47:02;18.00;;;16.10;;
13366;SDS011;6752;52.612;13.630;2024-02-16T02:52:04;23.33;;;20.93;;
13366;SDS011;6752;52.612;13.630;2024-02-16T02:57:07;20.17;;;18.17;;
13366;SDS011;6752;52.612;13.630;2024-02-16T03:02:09;23.40;;;20.33;;
13366;SDS011;6752;52.612;13.630;2024-02-16T03:07:11;23.30;;;20.87;;
13366;SDS011;6752;52.612;13.630;2024-02-16T03:12:14;20.90;;;18.83;;
13366;SDS011;6752;52.612;13.630;2024-02-16T03:17:16;20.53;;;18.43;;
13366;SDS011;6752;52.612;13.630;2024-02-16T03:22:19;24.33;;;21.53;;
13366;SDS011;6752;52.612;13.630;2024-02-16T03:27:21;21.73;;;19.57;;
13366;SDS011;6752;52.612;13.630;2024-02-16T03:32:23;23.30;;;20.90;;
13366;SDS011;6752;52.612;13.630;2024-02-16T03:37:26;23.20;;;20.80;;
13366;SDS011;6752;52.612;13.630;2024-02-16T03:42:28;19.50;;;17.53;;
13366;SDS011;6752;52.612;13.630;2024-02-16T03:47:30;21.98;;;20.00;;
13366;SDS011;6752;52.612;13.630;2024-02-16T03:52:33;18.23;;;16.33;;
13366;SDS011;6752;52.612;13.630;2024-02-16T03:57:35;21.03;;;18.83;;
13366;SDS011;6752;52.612;13.630;2024-02-16T04:02:38;19.90;;;17.80;;
13366;SDS011;6752;52.612;13.630;2024-02-16T04:07:40;20.33;;;18.13;;
13366;SDS011;6752;52.612;13.630;2024-02-16T04:12:42;23.27;;;20.77;;
13366;SDS011;6752;52.612;13.630;2024-02-16T04:17:45;21.50;;;18.63;;
13366;SDS011;6752;52.612;13.630;2024-02-16T04:22:47;22.33;;;20.03;;
13366;SDS011;6752;52.612;13.630;2024-02-16T04:27:49;21.37;;;18.87;;
13366;SDS011;6752;52.612;13.630;2024-02-16T04:32:52;20.47;;;18.27;;
13366;SDS011;6752;52.612;13.630;2024-02-16T04:37:54;22.83;;;20.33;;
13366;SDS011;6752;52.612;13.630;2024-02-16T04:42:56;20.47;;;18.43;;
13366;SDS011;6752;52.612;13.630;2024-02-16T04:48:02;22.43;;;19.70;;
13366;SDS011;6752;52.612;13.630;2024-02-16T04:53:04;21.90;;;19.50;;
13366;SDS011;6752;52.612;13.630;2024-02-16T04:58:06;21.90;;;19.37;;
13366;SDS011;6752;52.612;13.630;2024-02-16T05:03:10;23.23;;;20.73;;
13366;SDS011;6752;52.612;13.630;2024-02-16T05:08:13;19.33;;;16.80;;
13366;SDS011;6752;52.612;13.630;2024-02-16T05:13:15;21.47;;;19.10;;
13366;SDS011;6752;52.612;13.630;2024-02-16T05:18:18;22.20;;;18.73;;
13366;SDS011;6752;52.612;13.630;2024-02-16T05:23:20;22.00;;;19.57;;
13366;SDS011;6752;52.612;13.630;2024-02-16T05:28:25;20.70;;;18.50;;
13366;SDS011;6752;52.612;13.630;2024-02-16T05:33:25;18.90;;;16.93;;
13366;SDS011;6752;52.612;13.630;2024-02-16T05:38:27;18.90;;;16.90;;
13366;SDS011;6752;52.612;13.630;2024-02-16T05:43:35;19.20;;;16.53;;
13366;SDS011;6752;52.612;13.630;2024-02-16T05:48:38;18.87;;;16.57;;
13366;SDS011;6752;52.612;13.630;2024-02-16T05:53:40;20.83;;;18.63;;
13366;SDS011;6752;52.612;13.630;2024-02-16T05:58:43;21.23;;;18.57;;
13366;SDS011;6752;52.612;13.630;2024-02-16T06:03:45;19.47;;;17.40;;
13366;SDS011;6752;52.612;13.630;2024-02-16T06:08:47;20.70;;;18.50;;
13366;SDS011;6752;52.612;13.630;2024-02-16T06:13:50;17.80;;;15.90;;
13366;SDS011;6752;52.612;13.630;2024-02-16T06:18:52;18.70;;;16.13;;
13366;SDS011;6752;52.612;13.630;2024-02-16T06:23:54;19.20;;;16.13;;
13366;SDS011;6752;52.612;13.630;2024-02-16T06:28:57;19.60;;;16.97;;
13366;SDS011;6752;52.612;13.630;2024-02-16T06:33:59;20.27;;;17.53;;
13366;SDS011;6752;52.612;13.630;2024-02-16T06:39:01;19.48;;;17.58;;
13366;SDS011;6752;52.612;13.630;2024-02-16T06:44:04;15.63;;;14.03;;
13366;SDS011;6752;52.612;13.630;2024-02-16T06:49:06;17.27;;;14.80;;
13366;SDS011;6752;52.612;13.630;2024-02-16T06:54:09;19.50;;;16.87;;
13366;SDS011;6752;52.612;13.630;2024-02-16T06:59:11;17.27;;;15.53;;
13366;SDS011;6752;52.612;13.630;2024-02-16T07:04:13;17.47;;;15.60;;
13366;SDS011;6752;52.612;13.630;2024-02-16T07:09:16;17.63;;;15.73;;
13366;SDS011;6752;52.612;13.630;2024-02-16T07:14:18;17.17;;;15.37;;
13366;SDS011;6752;52.612;13.630;2024-02-16T07:19:20;16.90;;;15.10;;
13366;SDS011;6752;52.612;13.630;2024-02-16T07:24:23;18.07;;;15.93;;
13366;SDS011;6752;52.612;13.630;2024-02-16T07:29:25;18.43;;;16.40;;
13366;SDS011;6752;52.612;13.630;2024-02-16T07:34:28;17.70;;;15.30;;
13366;SDS011;6752;52.612;13.630;2024-02-16T07:39:30;17.70;;;15.80;;
13366;SDS011;6752;52.612;13.630;2024-02-16T07:44:32;17.63;;;15.67;;
13366;SDS011;6752;52.612;13.630;2024-02-16T07:49:37;15.73;;;14.13;;
13366;SDS011;6752;52.612;13.630;2024-02-16T07:54:37;15.63;;;13.97;;
13366;SDS011;6752;52.612;13.630;2024-02-16T07:59:40;15.20;;;13.47;;
13366;SDS011;6752;52.612;13.630;2024-02-16T08:04:42;16.23;;;14.53;;
13366;SDS011;6752;52.612;13.630;2024-02-16T08:09:49;14.37;;;12.97;;
13366;SDS011;6752;52.612;13.630;2024-02-16T08:14:47;13.97;;;12.53;;
13366;SDS011;6752;52.612;13.630;2024-02-16T08:19:52;14.47;;;13.07;;
13366;SDS011;6752;52.612;13.630;2024-02-16T08:24:54;13.90;;;12.60;;
13366;SDS011;6752;52.612;13.630;2024-02-16T08:29:57;13.03;;;11.77;;
13366;SDS011;6752;52.612;13.630;2024-02-16T08:34:59;12.37;;;11.10;;
13366;SDS011;6752;52.612;13.630;2024-02-16T08:40:02;12.50;;;11.30;;
13366;SDS011;6752;52.612;13.630;2024-02-16T08:45:04;12.27;;;10.77;;
13366;SDS011;6752;52.612;13.630;2024-02-16T08:50:06;11.90;;;10.70;;
13366;SDS011;6752;52.612;13.630;2024-02-16T08:55:09;11.87;;;10.00;;
13366;SDS011;6752;52.612;13.630;2024-02-16T09:00:11;11.87;;;10.23;;
13366;SDS011;6752;52.612;13.630;2024-02-16T09:05:13;10.63;;;9.63;;
13366;SDS011;6752;52.612;13.630;2024-02-16T09:10:16;10.30;;;9.30;;
13366;SDS011;6752;52.612;13.630;2024-02-16T09:15:18;9.80;;;8.90;;
13366;SDS011;6752;52.612;13.630;2024-02-16T09:20:21;9.23;;;8.33;;
13366;SDS011;6752;52.612;13.630;2024-02-16T09:25:23;9.63;;;8.20;;
13366;SDS011;6752;52.612;13.630;2024-02-16T09:30:25;10.40;;;9.40;;
13366;SDS011;6752;52.612;13.630;2024-02-16T09:35:28;10.50;;;9.40;;
13366;SDS011;6752;52.612;13.630;2024-02-16T09:40:30;10.27;;;9.07;;
13366;SDS011;6752;52.612;13.630;2024-02-16T09:45:33;9.80;;;8.80;;
13366;SDS011;6752;52.612;13.630;2024-02-16T09:50:35;10.53;;;9.43;;
13366;SDS011;6752;52.612;13.630;2024-02-16T09:55:37;11.27;;;9.37;;
13366;SDS011;6752;52.612;13.630;2024-02-16T10:00:39;10.13;;;9.03;;
13366;SDS011;6752;52.612;13.630;2024-02-16T10:05:42;11.27;;;10.07;;
13366;SDS011;6752;52.612;13.630;2024-02-16T10:10:44;12.43;;;11.20;;
13366;SDS011;6752;52.612;13.630;2024-02-16T10:15:47;9.83;;;8.83;;
13366;SDS011;6752;52.612;13.630;2024-02-16T10:20:49;11.50;;;10.30;;
13366;SDS011;6752;52.612;13.630;2024-02-16T10:25:52;9.67;;;8.63;;
13366;SDS011;6752;52.612;13.630;2024-02-16T10:30:57;9.33;;;8.50;;
13366;SDS011;6752;52.612;13.630;2024-02-16T10:35:59;8.83;;;7.90;;
13366;SDS011;6752;52.612;13.630;2024-02-16T10:41:02;9.03;;;8.13;;
13366;SDS011;6752;52.612;13.630;2024-02-16T10:46:04;8.53;;;7.57;;
13366;SDS011;6752;52.612;13.630;2024-02-16T10:51:06;8.27;;;7.33;;
13366;SDS011;6752;52.612;13.630;2024-02-16T10:56:09;9.03;;;8.10;;
13366;SDS011;6752;52.612;13.630;2024-02-16T11:01:14;9.03;;;7.40;;
13366;SDS011;6752;52.612;13.630;2024-02-16T11:06:17;8.47;;;7.40;;
13366;SDS011;6752;52.612;13.630;2024-02-16T11:11:22;7.63;;;6.83;;
13366;SDS011;6752;52.612;13.630;2024-02-16T11:16:24;7.43;;;6.70;;
13366;SDS011;6752;52.612;13.630;2024-02-16T11:21:27;9.67;;;7.23;;
13366;SDS011;6752;52.612;13.630;2024-02-16T11:26:29;8.50;;;7.60;;
13366;SDS011;6752;52.612;13.630;2024-02-16T11:31:31;8.20;;;7.40;;
13366;SDS011;6752;52.612;13.630;2024-02-16T11:36:34;8.60;;;7.13;;
13366;SDS011;6752;52.612;13.630;2024-02-16T11:41:36;7.97;;;7.17;;
13366;SDS011;6752;52.612;13.630;2024-02-16T11:46:38;8.67;;;7.80;;
13366;SDS011;6752;52.612;13.630;2024-02-16T11:51:41;8.37;;;6.83;;
13366;SDS011;6752;52.612;13.630;2024-02-16T11:56:46;7.90;;;7.10;;
13366;SDS011;6752;52.612;13.630;2024-02-16T12:01:54;9.20;;;7.93;;
13366;SDS011;6752;52.612;13.630;2024-02-16T12:07:00;7.97;;;7.17;;
13366;SDS011;6752;52.612;13.630;2024-02-16T12:12:02;8.67;;;6.83;;
13366;SDS011;6752;52.612;13.630;2024-02-16T12:17:04;8.13;;;7.33;;
13366;SDS011;6752;52.612;13.630;2024-02-16T12:22:06;7.97;;;7.17;;
13366;SDS011;6752;52.612;13.630;2024-02-16T12:27:09;7.83;;;6.37;;
13366;SDS011;6752;52.612;13.630;2024-02-16T12:32:11;7.23;;;6.53;;
13366;SDS011;6752;52.612;13.630;2024-02-16T12:37:13;7.87;;;7.17;;
13366;SDS011;6752;52.612;13.630;2024-02-16T12:42:16;7.27;;;6.27;;
13366;SDS011;6752;52.612;13.630;2024-02-16T12:47:18;7.47;;;5.93;;
13366;SDS011;6752;52.612;13.630;2024-02-16T12:52:20;6.10;;;4.40;;
13366;SDS011;6752;52.612;13.630;2024-02-16T12:57:26;5.20;;;4.07;;
13366;SDS011;6752;52.612;13.630;2024-02-16T13:02:28;5.90;;;4.10;;
13366;SDS011;6752;52.612;13.630;2024-02-16T13:07:31;5.17;;;4.00;;
13366;SDS011;6752;52.612;13.630;2024-02-16T13:12:33;6.07;;;4.00;;
13366;SDS011;6752;52.612;13.630;2024-02-16T13:17:35;3.70;;;3.27;;
13366;SDS011;6752;52.612;13.630;2024-02-16T13:22:38;3.92;;;3.53;;
13366;SDS011;6752;52.612;13.630;2024-02-16T13:27:40;4.80;;;3.60;;
13366;SDS011;6752;52.612;13.630;2024-02-16T13:32:42;4.07;;;3.40;;
13366;SDS011;6752;52.612;13.630;2024-02-16T13:37:45;5.60;;;3.63;;
13366;SDS011;6752;52.612;13.630;2024-02-16T13:42:47;4.10;;;3.30;;
13366;SDS011;6752;52.612;13.630;2024-02-16T13:47:50;4.20;;;3.80;;
13366;SDS011;6752;52.612;13.630;2024-02-16T13:52:52;3.95;;;3.50;;
13366;SDS011;6752;52.612;13.630;2024-02-16T13:57:58;5.37;;;4.00;;
13366;SDS011;6752;52.612;13.630;2024-02-16T14:03:01;5.40;;;3.97;;
13366;SDS011;6752;52.612;13.630;2024-02-16T14:08:03;5.63;;;4.30;;
13366;SDS011;6752;52.612;13.630;2024-02-16T14:13:05;6.23;;;4.20;;
13366;SDS011;6752;52.612;13.630;2024-02-16T14:18:08;5.00;;;4.07;;
13366;SDS011;6752;52.612;13.630;2024-02-16T14:23:10;6.07;;;4.00;;
13366;SDS011;6752;52.612;13.630;2024-02-16T14:28:12;5.43;;;3.97;;
13366;SDS011;6752;52.612;13.630;2024-02-16T14:33:16;6.27;;;4.13;;
13366;SDS011;6752;52.612;13.630;2024-02-16T14:38:20;5.57;;;3.30;;
13366;SDS011;6752;52.612;13.630;2024-02-16T14:43:22;5.37;;;3.70;;
13366;SDS011;6752;52.612;13.630;2024-02-16T14:48:24;5.47;;;3.90;;
13366;SDS011;6752;52.612;13.630;2024-02-16T14:53:27;5.17;;;3.83;;
13366;SDS011;6752;52.612;13.630;2024-02-16T14:58:29;5.17;;;3.73;;
13366;SDS011;6752;52.612;13.630;2024-02-16T15:03:32;5.63;;;3.87;;
13366;SDS011;6752;52.612;13.630;2024-02-16T15:08:34;5.13;;;4.20;;
13366;SDS011;6752;52.612;13.630;2024-02-16T15:13:36;5.03;;;4.00;;
13366;SDS011;6752;52.612;13.630;2024-02-16T15:18:39;4.60;;;3.73;;
13366;SDS011;6752;52.612;13.630;2024-02-16T15:23:41;4.20;;;3.50;;
13366;SDS011;6752;52.612;13.630;2024-02-16T15:28:43;4.37;;;3.70;;
13366;SDS011;6752;52.612;13.630;2024-02-16T15:33:46;5.93;;;3.50;;
13366;SDS011;6752;52.612;13.630;2024-02-16T15:38:48;5.27;;;3.60;;
13366;SDS011;6752;52.612;13.630;2024-02-16T15:43:50;4.73;;;3.70;;
13366;SDS011;6752;52.612;13.630;2024-02-16T15:48:53;4.57;;;3.47;;
13366;SDS011;6752;52.612;13.630;2024-02-16T15:53:55;4.60;;;3.80;;
13366;SDS011;6752;52.612;13.630;2024-02-16T15:58:57;4.97;;;3.90;;
13366;SDS011;6752;52.612;13.630;2024-02-16T16:04:02;4.97;;;4.10;;
13366;SDS011;6752;52.612;13.630;2024-02-16T16:09:05;6.03;;;4.80;;
13366;SDS011;6752;52.612;13.630;2024-02-16T16:19:15;5.03;;;3.90;;
13366;SDS011;6752;52.612;13.630;2024-02-16T16:24:17;5.17;;;3.80;;
13366;SDS011;6752;52.612;13.630;2024-02-16T16:29:19;5.47;;;4.93;;
13366;SDS011;6752;52.612;13.630;2024-02-16T16:34:22;7.70;;;5.97;;
13366;SDS011;6752;52.612;13.630;2024-02-16T16:39:24;8.73;;;7.33;;
13366;SDS011;6752;52.612;13.630;2024-02-16T16:44:26;8.93;;;8.00;;
13366;SDS011;6752;52.612;13.630;2024-02-16T16:49:29;7.50;;;6.27;;
13366;SDS011;6752;52.612;13.630;2024-02-16T16:54:31;6.00;;;5.40;;
13366;SDS011;6752;52.612;13.630;2024-02-16T16:59:33;4.83;;;4.27;;
13366;SDS011;6752;52.612;13.630;2024-02-16T17:04:36;5.93;;;4.47;;
13366;SDS011;6752;52.612;13.630;2024-02-16T17:09:38;4.93;;;4.17;;
13366;SDS011;6752;52.612;13.630;2024-02-16T17:14:41;5.83;;;4.13;;
13366;SDS011;6752;52.612;13.630;2024-02-16T17:19:43;7.37;;;5.47;;
13366;SDS011;6752;52.612;13.630;2024-02-16T17:24:45;5.33;;;4.47;;
13366;SDS011;6752;52.612;13.630;2024-02-16T17:29:48;6.07;;;3.93;;
13366;SDS011;6752;52.612;13.630;2024-02-16T17:34:50;4.50;;;3.60;;
13366;SDS011;6752;52.612;13.630;2024-02-16T17:39:52;4.57;;;3.80;;
13366;SDS011;6752;52.612;13.630;2024-02-16T17:44:55;4.53;;;3.53;;
13366;SDS011;6752;52.612;13.630;2024-02-16T17:49:57;4.77;;;3.73;;
13366;SDS011;6752;52.612;13.630;2024-02-16T17:54:59;5.57;;;3.80;;
13366;SDS011;6752;52.612;13.630;2024-02-16T18:00:02;4.13;;;3.30;;
13366;SDS011;6752;52.612;13.630;2024-02-16T18:05:04;5.83;;;3.23;;
13366;SDS011;6752;52.612;13.630;2024-02-16T18:10:07;3.87;;;3.40;;
13366;SDS011;6752;52.612;13.630;2024-02-16T18:15:09;4.90;;;3.40;;
13366;SDS011;6752;52.612;13.630;2024-02-16T18:20:11;6.23;;;3.80;;
13366;SDS011;6752;52.612;13.630;2024-02-16T18:25:14;5.73;;;4.40;;
13366;SDS011;6752;52.612;13.630;2024-02-16T18:30:16;5.73;;;3.67;;
13366;SDS011;6752;52.612;13.630;2024-02-16T18:35:18;4.40;;;3.10;;
13366;SDS011;6752;52.612;13.630;2024-02-16T18:40:21;4.50;;;3.03;;
13366;SDS011;6752;52.612;13.630;2024-02-16T18:45:23;5.00;;;3.40;;
13366;SDS011;6752;52.612;13.630;2024-02-16T18:50:25;4.80;;;3.30;;
13366;SDS011;6752;52.612;13.630;2024-02-16T18:55:28;4.53;;;3.10;;
13366;SDS011;6752;52.612;13.630;2024-02-16T19:00:30;5.77;;;3.77;;
13366;SDS011;6752;52.612;13.630;2024-02-16T19:05:33;5.00;;;3.47;;
13366;SDS011;6752;52.612;13.630;2024-02-16T19:10:35;4.67;;;3.30;;
13366;SDS011;6752;52.612;13.630;2024-02-16T19:15:37;7.07;;;4.63;;
13366;SDS011;6752;52.612;13.630;2024-02-16T19:20:40;4.60;;;3.40;;
13366;SDS011;6752;52.612;13.630;2024-02-16T19:25:42;6.00;;;4.03;;
13366;SDS011;6752;52.612;13.630;2024-02-16T19:30:45;6.40;;;3.80;;
13366;SDS011;6752;52.612;13.630;2024-02-16T19:35:48;5.27;;;3.60;;
13366;SDS011;6752;52.612;13.630;2024-02-16T19:40:50;8.27;;;4.43;;
13366;SDS011;6752;52.612;13.630;2024-02-16T19:45:52;5.73;;;4.20;;
13366;SDS011;6752;52.612;13.630;2024-02-16T19:50:55;5.40;;;4.03;;
13366;SDS011;6752;52.612;13.630;2024-02-16T19:55:57;6.73;;;4.10;;
13366;SDS011;6752;52.612;13.630;2024-02-16T20:00:59;5.87;;;5.00;;
13366;SDS011;6752;52.612;13.630;2024-02-16T20:06:02;5.90;;;4.63;;
13366;SDS011;6752;52.612;13.630;2024-02-16T20:11:04;6.90;;;5.37;;
13366;SDS011;6752;52.612;13.630;2024-02-16T20:16:07;9.27;;;5.40;;
13366;SDS011;6752;52.612;13.630;2024-02-16T20:21:09;9.13;;;5.30;;
13366;SDS011;6752;52.612;13.630;2024-02-16T20:26:11;7.57;;;5.20;;
13366;SDS011;6752;52.612;13.630;2024-02-16T20:31:14;8.30;;;6.77;;
13366;SDS011;6752;52.612;13.630;2024-02-16T20:36:17;9.23;;;6.33;;
13366;SDS011;6752;52.612;13.630;2024-02-16T20:41:19;8.07;;;6.73;;
13366;SDS011;6752;52.612;13.630;2024-02-16T20:46:22;9.37;;;7.10;;
13366;SDS011;6752;52.612;13.630;2024-02-16T20:51:27;9.87;;;7.70;;
13366;SDS011;6752;52.612;13.630;2024-02-16T20:56:30;11.03;;;8.00;;
13366;SDS011;6752;52.612;13.630;2024-02-16T21:01:35;9.70;;;8.80;;
13366;SDS011;6752;52.612;13.630;2024-02-16T21:06:37;11.33;;;9.10;;
13366;SDS011;6752;52.612;13.630;2024-02-16T21:11:39;9.10;;;8.20;;
13366;SDS011;6752;52.612;13.630;2024-02-16T21:16:43;12.17;;;9.20;;
13366;SDS011;6752;52.612;13.630;2024-02-16T21:21:46;11.90;;;9.83;;
13366;SDS011;6752;52.612;13.630;2024-02-16T21:26:49;12.97;;;9.90;;
13366;SDS011;6752;52.612;13.630;2024-02-16T21:31:51;11.03;;;9.70;;
13366;SDS011;6752;52.612;13.630;2024-02-16T21:36:53;10.90;;;9.77;;
13366;SDS011;6752;52.612;13.630;2024-02-16T21:41:55;10.70;;;9.70;;
13366;SDS011;6752;52.612;13.630;2024-02-16T21:46:58;10.30;;;9.27;;
13366;SDS011;6752;52.612;13.630;2024-02-16T21:52:00;10.63;;;9.63;;
13366;SDS011;6752;52.612;13.630;2024-02-16T21:57:02;12.30;;;11.00;;
13366;SDS011;6752;52.612;13.630;2024-02-16T22:02:05;12.00;;;10.80;;
13366;SDS011;6752;52.612;13.630;2024-02-16T22:07:07;11.07;;;9.97;;
13366;SDS011;6752;52.612;13.630;2024-02-16T22:12:10;12.20;;;10.93;;
13366;SDS011;6752;52.612;13.630;2024-02-16T22:17:12;12.27;;;11.07;;
13366;SDS011;6752;52.612;13.630;2024-02-16T22:22:14;14.20;;;12.80;;
13366;SDS011;6752;52.612;13.630;2024-02-16T22:27:17;13.67;;;12.27;;
13366;SDS011;6752;52.612;13.630;2024-02-16T22:32:19;13.90;;;12.40;;
13366;SDS011;6752;52.612;13.630;2024-02-16T22:37:21;14.33;;;12.87;;
13366;SDS011;6752;52.612;13.630;2024-02-16T22:42:24;14.70;;;12.97;;
13366;SDS011;6752;52.612;13.630;2024-02-16T22:47:26;14.30;;;12.80;;
13366;SDS011;6752;52.612;13.630;2024-02-16T22:52:29;15.13;;;13.63;;
13366;SDS011;6752;52.612;13.630;2024-02-16T22:57:31;14.23;;;12.77;;
13366;SDS011;6752;52.612;13.630;2024-02-16T23:02:34;15.57;;;13.20;;
13366;SDS011;6752;52.612;13.630;2024-02-16T23:07:36;14.83;;;12.83;;
13366;SDS011;6752;52.612;13.630;2024-02-16T23:12:39;12.97;;;11.63;;
13366;SDS011;6752;52.612;13.630;2024-02-16T23:17:41;12.57;;;11.37;;
13366;SDS011;6752;52.612;13.630;2024-02-16T23:23:02;10.93;;;9.70;;
13366;SDS011;6752;52.612;13.630;2024-02-16T23:28:06;8.48;;;7.68;;
13366;SDS011;6752;52.612;13.630;2024-02-16T23:33:09;8.67;;;7.77;;
13366;SDS011;6752;52.612;13.630;2024-02-16T23:38:14;9.07;;;8.17;;
13366;SDS011;6752;52.612;13.630;2024-02-16T23:43:16;10.80;;;9.70;;
13366;SDS011;6752;52.612;13.630;2024-02-16T23:48:19;10.33;;;9.20;;
13366;SDS011;6752;52.612;13.630;2024-02-16T23:53:21;10.03;;;9.13;;
13366;SDS011;6752;52.612;13.630;2024-02-16T23:58:23;10.57;;;9.47;;
